createdAt,value
2019-03-31T00:00:37.370Z,84.96
2019-03-31T00:01:37.368Z,84.59
2019-03-31T00:02:37.356Z,84.89
2019-03-31T00:03:37.551Z,85.10
2019-03-31T00:04:37.348Z,85.21
2019-03-31T00:05:37.671Z,84.89
2019-03-31T00:06:37.359Z,84.89
2019-03-31T00:07:37.301Z,85.52
2019-03-31T00:08:37.300Z,85.31
2019-03-31T00:09:37.317Z,85.41
2019-03-31T00:10:37.265Z,85.21
2019-03-31T00:11:37.257Z,85.21
2019-03-31T00:12:37.373Z,85.10
2019-03-31T00:13:37.231Z,85.00
2019-03-31T00:14:37.278Z,85.24
2019-03-31T00:15:37.219Z,85.86
2019-03-31T00:16:37.298Z,85.97
2019-03-31T00:17:37.189Z,85.97
2019-03-31T00:18:37.184Z,85.86
2019-03-31T00:19:37.172Z,86.59
2019-03-31T00:20:37.225Z,86.28
2019-03-31T00:21:37.151Z,86.07
2019-03-31T00:22:37.134Z,85.86
2019-03-31T00:23:37.148Z,86.11
2019-03-31T00:24:37.423Z,87.46
2019-03-31T00:25:37.225Z,87.66
2019-03-31T00:26:37.093Z,87.31
2019-03-31T00:27:37.106Z,87.21
2019-03-31T00:28:37.076Z,87.31
2019-03-31T00:29:37.077Z,87.00
2019-03-31T00:30:37.052Z,87.10
2019-03-31T00:31:37.093Z,86.59
2019-03-31T00:32:37.055Z,85.97
2019-03-31T00:33:37.046Z,85.93
2019-03-31T00:34:37.037Z,85.93
2019-03-31T00:35:37.013Z,86.34
2019-03-31T00:36:37.019Z,85.66
2019-03-31T00:37:36.979Z,86.13
2019-03-31T00:38:37.076Z,85.86
2019-03-31T00:39:36.992Z,86.28
2019-03-31T00:40:36.959Z,85.97
2019-03-31T00:41:36.968Z,86.07
2019-03-31T00:42:36.944Z,85.97
2019-03-31T00:43:36.934Z,86.42
2019-03-31T00:44:36.914Z,86.63
2019-03-31T00:45:37.279Z,86.83
2019-03-31T00:46:36.880Z,87.39
2019-03-31T00:47:36.894Z,88.07
2019-03-31T00:48:36.923Z,88.59
2019-03-31T00:49:36.884Z,88.18
2019-03-31T00:50:36.858Z,87.76
2019-03-31T00:51:36.856Z,87.39
2019-03-31T00:52:36.816Z,87.70
2019-03-31T00:53:36.830Z,88.22
2019-03-31T00:54:36.795Z,88.70
2019-03-31T00:55:36.807Z,88.80
2019-03-31T00:56:36.794Z,87.97
2019-03-31T00:57:37.043Z,86.83
2019-03-31T00:58:36.761Z,87.15
2019-03-31T00:59:36.769Z,87.04
2019-03-31T01:00:36.757Z,87.25
2019-03-31T01:01:37.197Z,87.15
2019-03-31T01:02:36.742Z,87.15
2019-03-31T01:03:36.713Z,87.15
2019-03-31T01:04:36.719Z,86.83
2019-03-31T01:05:36.755Z,87.04
2019-03-31T01:06:36.673Z,87.04
2019-03-31T01:07:36.715Z,87.25
2019-03-31T01:08:36.745Z,87.04
2019-03-31T01:09:36.683Z,86.83
2019-03-31T01:10:36.648Z,87.39
2019-03-31T01:11:36.637Z,87.46
2019-03-31T01:12:36.603Z,86.77
2019-03-31T01:13:36.595Z,87.29
2019-03-31T01:14:36.609Z,87.70
2019-03-31T01:15:36.597Z,87.81
2019-03-31T01:16:36.705Z,88.22
2019-03-31T01:17:36.573Z,88.22
2019-03-31T01:18:36.562Z,87.60
2019-03-31T01:19:36.568Z,88.12
2019-03-31T01:20:36.560Z,88.01
2019-03-31T01:21:36.519Z,87.91
2019-03-31T01:22:36.512Z,87.70
2019-03-31T01:23:36.519Z,87.60
2019-03-31T01:24:36.481Z,87.60
2019-03-31T01:25:36.502Z,87.70
2019-03-31T01:26:36.575Z,87.70
2019-03-31T01:27:36.462Z,87.39
2019-03-31T01:28:36.441Z,87.70
2019-03-31T01:29:36.460Z,87.91
2019-03-31T01:30:36.435Z,87.85
2019-03-31T01:31:49.395Z,88.06
2019-03-31T01:32:37.404Z,87.95
2019-03-31T01:33:36.476Z,88.26
2019-03-31T01:34:36.381Z,88.06
2019-03-31T01:35:36.365Z,87.85
2019-03-31T01:36:36.472Z,88.06
2019-03-31T01:37:36.378Z,88.36
2019-03-31T01:38:36.360Z,88.78
2019-03-31T01:39:36.330Z,88.78
2019-03-31T01:40:36.336Z,88.67
2019-03-31T01:41:36.300Z,88.78
2019-03-31T01:42:36.317Z,88.57
2019-03-31T01:43:36.419Z,88.46
2019-03-31T01:44:36.280Z,88.57
2019-03-31T01:45:36.300Z,88.88
2019-03-31T01:46:36.262Z,88.88
2019-03-31T01:47:36.256Z,88.67
2019-03-31T01:48:36.438Z,88.88
2019-03-31T01:49:36.231Z,88.78
2019-03-31T01:50:36.446Z,88.67
2019-03-31T01:51:36.219Z,88.78
2019-03-31T01:52:36.206Z,88.06
2019-03-31T01:53:36.196Z,88.16
2019-03-31T01:54:36.166Z,87.33
2019-03-31T01:55:36.195Z,88.26
2019-03-31T01:56:36.144Z,88.78
2019-03-31T01:57:36.338Z,89.03
2019-03-31T01:58:36.138Z,88.51
2019-03-31T01:59:36.140Z,88.71
2019-03-31T02:00:36.115Z,89.44
2019-03-31T02:01:36.097Z,89.54
2019-03-31T02:02:36.180Z,89.44
2019-03-31T02:03:36.067Z,89.86
2019-03-31T02:04:36.069Z,89.44
2019-03-31T02:05:36.072Z,89.34
2019-03-31T02:06:36.050Z,89.44
2019-03-31T02:07:36.045Z,89.54
2019-03-31T02:08:36.035Z,89.23
2019-03-31T02:09:36.117Z,89.03
2019-03-31T02:10:36.025Z,89.23
2019-03-31T02:11:35.981Z,89.13
2019-03-31T02:12:36.001Z,89.03
2019-03-31T02:13:35.958Z,88.92
2019-03-31T02:14:35.952Z,88.82
2019-03-31T02:15:35.956Z,88.82
2019-03-31T02:16:36.075Z,89.03
2019-03-31T02:17:35.954Z,89.07
2019-03-31T02:18:35.922Z,88.92
2019-03-31T02:19:35.902Z,88.96
2019-03-31T02:20:35.914Z,89.17
2019-03-31T02:21:35.890Z,89.58
2019-03-31T02:22:35.902Z,89.48
2019-03-31T02:23:35.861Z,89.48
2019-03-31T02:24:35.874Z,89.48
2019-03-31T02:25:35.837Z,89.38
2019-03-31T02:26:35.877Z,89.38
2019-03-31T02:27:35.843Z,89.28
2019-03-31T02:28:35.811Z,88.96
2019-03-31T02:29:35.797Z,89.28
2019-03-31T02:30:36.001Z,89.48
2019-03-31T02:31:35.797Z,89.48
2019-03-31T02:32:35.776Z,89.79
2019-03-31T02:33:35.747Z,89.58
2019-03-31T02:34:35.744Z,89.79
2019-03-31T02:35:35.766Z,89.48
2019-03-31T02:36:35.713Z,89.58
2019-03-31T02:37:35.725Z,89.48
2019-03-31T02:38:35.699Z,89.48
2019-03-31T02:39:35.691Z,89.62
2019-03-31T02:40:35.686Z,89.52
2019-03-31T02:41:35.778Z,90.35
2019-03-31T02:42:35.681Z,89.52
2019-03-31T02:43:35.690Z,89.42
2019-03-31T02:44:35.648Z,89.52
2019-03-31T02:45:35.642Z,89.73
2019-03-31T02:46:35.657Z,89.73
2019-03-31T02:47:35.605Z,89.52
2019-03-31T02:48:35.617Z,89.83
2019-03-31T02:49:35.625Z,89.87
2019-03-31T02:50:35.749Z,89.94
2019-03-31T02:51:35.778Z,89.52
2019-03-31T02:52:35.569Z,89.42
2019-03-31T02:53:35.547Z,89.87
2019-03-31T02:54:35.561Z,90.14
2019-03-31T02:55:35.546Z,89.98
2019-03-31T02:56:35.515Z,89.46
2019-03-31T02:57:35.577Z,89.56
2019-03-31T02:58:35.500Z,89.25
2019-03-31T02:59:35.487Z,89.77
2019-03-31T03:00:35.530Z,90.60
2019-03-31T03:01:35.465Z,91.12
2019-03-31T03:02:42.143Z,90.08
2019-03-31T03:03:36.474Z,90.29
2019-03-31T03:04:35.419Z,89.92
2019-03-31T03:05:35.446Z,90.29
2019-03-31T03:06:35.417Z,91.16
2019-03-31T03:07:35.386Z,91.47
2019-03-31T03:08:35.419Z,91.22
2019-03-31T03:09:35.396Z,91.22
2019-03-31T03:10:35.351Z,91.43
2019-03-31T03:11:35.344Z,90.64
2019-03-31T03:12:35.342Z,90.64
2019-03-31T03:13:35.356Z,90.75
2019-03-31T03:14:35.324Z,91.47
2019-03-31T03:15:35.299Z,90.95
2019-03-31T03:16:35.290Z,91.47
2019-03-31T03:17:35.280Z,91.43
2019-03-31T03:18:35.280Z,91.27
2019-03-31T03:19:35.260Z,91.58
2019-03-31T03:20:35.264Z,91.27
2019-03-31T03:21:35.249Z,91.37
2019-03-31T03:22:35.384Z,91.43
2019-03-31T03:23:35.267Z,90.85
2019-03-31T03:24:35.207Z,90.44
2019-03-31T03:25:35.218Z,91.16
2019-03-31T03:26:35.224Z,90.89
2019-03-31T03:27:35.195Z,91.31
2019-03-31T03:28:35.198Z,91.68
2019-03-31T03:29:35.162Z,91.83
2019-03-31T03:30:35.205Z,91.52
2019-03-31T03:31:35.132Z,91.93
2019-03-31T03:32:35.150Z,91.55
2019-03-31T03:33:35.180Z,92.24
2019-03-31T03:34:35.116Z,92.38
2019-03-31T03:35:35.127Z,91.86
2019-03-31T03:36:35.102Z,91.97
2019-03-31T03:37:35.065Z,91.97
2019-03-31T03:38:35.078Z,92.59
2019-03-31T03:39:35.047Z,92.11
2019-03-31T03:40:35.034Z,92.18
2019-03-31T03:41:35.044Z,92.80
2019-03-31T03:42:35.034Z,93.32
2019-03-31T03:43:53.606Z,92.90
2019-03-31T03:44:36.013Z,92.90
2019-03-31T03:45:34.986Z,92.55
2019-03-31T03:46:34.972Z,92.86
2019-03-31T03:47:34.960Z,92.66
2019-03-31T03:48:34.958Z,92.24
2019-03-31T03:49:34.965Z,92.45
2019-03-31T03:50:34.936Z,92.28
2019-03-31T03:51:34.945Z,92.35
2019-03-31T03:52:34.911Z,92.24
2019-03-31T03:53:34.896Z,91.41
2019-03-31T03:54:34.901Z,91.52
2019-03-31T03:55:34.880Z,91.24
2019-03-31T03:56:34.884Z,92.14
2019-03-31T03:57:34.860Z,92.07
2019-03-31T03:58:34.850Z,92.69
2019-03-31T03:59:34.864Z,92.07
2019-03-31T04:00:34.903Z,92.28
2019-03-31T04:01:34.823Z,92.49
2019-03-31T04:02:34.829Z,92.28
2019-03-31T04:03:34.791Z,92.38
2019-03-31T04:04:34.804Z,92.90
2019-03-31T04:05:34.768Z,92.90
2019-03-31T04:06:34.761Z,92.90
2019-03-31T04:07:34.803Z,92.59
2019-03-31T04:08:34.751Z,92.69
2019-03-31T04:09:34.815Z,93.12
2019-03-31T04:10:34.735Z,92.69
2019-03-31T04:11:34.704Z,92.69
2019-03-31T04:12:34.729Z,93.32
2019-03-31T04:13:34.691Z,92.80
2019-03-31T04:14:34.855Z,92.69
2019-03-31T04:15:34.720Z,92.90
2019-03-31T04:16:34.702Z,92.07
2019-03-31T04:17:34.704Z,91.97
2019-03-31T04:18:34.632Z,92.28
2019-03-31T04:19:34.652Z,92.18
2019-03-31T04:20:39.091Z,92.18
2019-03-31T04:21:35.661Z,91.76
2019-03-31T04:22:34.592Z,92.49
2019-03-31T04:23:34.581Z,92.43
2019-03-31T04:24:34.622Z,92.38
2019-03-31T04:25:34.560Z,92.38
2019-03-31T04:26:34.555Z,92.59
2019-03-31T04:27:34.537Z,92.32
2019-03-31T04:28:34.528Z,92.53
2019-03-31T04:29:34.586Z,92.53
2019-03-31T04:30:34.525Z,92.43
2019-03-31T04:31:34.497Z,92.32
2019-03-31T04:32:38.483Z,92.57
2019-03-31T04:33:49.168Z,92.36
2019-03-31T04:34:35.478Z,93.20
2019-03-31T04:35:34.458Z,92.88
2019-03-31T04:36:34.469Z,92.68
2019-03-31T04:37:34.681Z,93.30
2019-03-31T04:38:34.425Z,93.55
2019-03-31T04:39:34.428Z,93.51
2019-03-31T04:40:34.399Z,93.03
2019-03-31T04:41:34.392Z,93.97
2019-03-31T04:42:34.379Z,93.72
2019-03-31T04:43:34.391Z,93.87
2019-03-31T04:44:34.379Z,93.66
2019-03-31T04:45:34.353Z,93.51
2019-03-31T04:46:34.338Z,94.28
2019-03-31T04:47:34.326Z,93.97
2019-03-31T04:48:34.324Z,93.76
2019-03-31T04:49:34.329Z,93.66
2019-03-31T04:50:34.315Z,94.07
2019-03-31T04:51:34.284Z,94.18
2019-03-31T04:52:34.278Z,94.07
2019-03-31T04:53:34.276Z,94.90
2019-03-31T04:54:34.270Z,95.32
2019-03-31T04:55:34.241Z,95.94
2019-03-31T04:56:34.250Z,97.04
2019-03-31T04:57:34.240Z,97.56
2019-03-31T04:58:34.219Z,97.98
2019-03-31T04:59:34.234Z,98.86
2019-03-31T05:00:34.255Z,99.24
2019-03-31T05:01:34.180Z,99.24
2019-03-31T05:02:34.186Z,99.24
2019-03-31T05:03:34.157Z,99.99
2019-03-31T05:04:34.168Z,99.61
2019-03-31T05:05:34.138Z,99.98
2019-03-31T05:06:34.151Z,99.99
2019-03-31T05:07:34.138Z,99.99
2019-03-31T05:08:34.109Z,99.99
2019-03-31T05:09:34.197Z,99.99
2019-03-31T05:10:34.185Z,99.99
2019-03-31T05:11:34.148Z,99.99
2019-03-31T05:12:34.114Z,99.99
2019-03-31T05:13:34.081Z,99.99
2019-03-31T05:14:34.050Z,99.99
2019-03-31T05:15:34.097Z,99.99
2019-03-31T05:16:34.047Z,99.99
2019-03-31T05:17:35.736Z,99.99
2019-03-31T05:18:33.998Z,99.93
2019-03-31T05:19:34.013Z,99.99
2019-03-31T05:20:33.982Z,99.99
2019-03-31T05:21:33.976Z,99.99
2019-03-31T05:22:33.990Z,99.78
2019-03-31T05:23:33.956Z,99.57
2019-03-31T05:24:33.990Z,99.78
2019-03-31T05:25:33.922Z,99.57
2019-03-31T05:26:33.913Z,99.73
2019-03-31T05:27:33.902Z,99.01
2019-03-31T05:28:33.920Z,98.80
2019-03-31T05:29:33.932Z,99.01
2019-03-31T05:30:33.874Z,98.96
2019-03-31T05:31:33.870Z,98.96
2019-03-31T05:32:33.857Z,98.65
2019-03-31T05:33:33.958Z,97.52
2019-03-31T05:34:33.867Z,98.03
2019-03-31T05:35:33.872Z,98.13
2019-03-31T05:36:33.841Z,98.03
2019-03-31T05:37:33.817Z,98.09
2019-03-31T05:38:33.809Z,97.06
2019-03-31T05:39:33.817Z,97.36
2019-03-31T05:40:33.802Z,97.16
2019-03-31T05:41:33.837Z,96.75
2019-03-31T05:42:33.747Z,96.23
2019-03-31T05:43:33.757Z,96.19
2019-03-31T05:44:33.761Z,96.19
2019-03-31T05:45:33.727Z,95.77
2019-03-31T05:46:33.699Z,95.36
2019-03-31T05:47:33.698Z,94.84
2019-03-31T05:48:33.699Z,94.79
2019-03-31T05:49:33.693Z,94.53
2019-03-31T05:50:33.678Z,94.43
2019-03-31T05:51:33.647Z,94.69
2019-03-31T05:52:33.640Z,94.32
2019-03-31T05:53:33.626Z,94.38
2019-03-31T05:54:33.639Z,93.97
2019-03-31T05:55:33.609Z,94.18
2019-03-31T05:56:33.612Z,94.28
2019-03-31T05:57:33.582Z,94.48
2019-03-31T05:58:33.598Z,94.07
2019-03-31T05:59:33.562Z,95.52
2019-03-31T06:00:33.595Z,94.90
2019-03-31T06:01:33.561Z,94.90
2019-03-31T06:02:33.605Z,95.52
2019-03-31T06:03:33.556Z,95.06
2019-03-31T06:04:33.770Z,94.85
2019-03-31T06:05:33.552Z,95.57
2019-03-31T06:06:36.824Z,94.96
2019-03-31T06:07:33.535Z,94.85
2019-03-31T06:08:33.475Z,95.32
2019-03-31T06:09:33.472Z,95.37
2019-03-31T06:10:33.574Z,95.57
2019-03-31T06:11:33.444Z,96.15
2019-03-31T06:12:33.450Z,96.09
2019-03-31T06:13:33.428Z,95.22
2019-03-31T06:14:33.416Z,95.37
2019-03-31T06:15:33.439Z,95.27
2019-03-31T06:16:33.384Z,95.32
2019-03-31T06:17:33.417Z,94.92
2019-03-31T06:18:33.376Z,94.81
2019-03-31T06:19:33.349Z,95.12
2019-03-31T06:20:33.417Z,95.49
2019-03-31T06:21:33.346Z,94.87
2019-03-31T06:22:33.359Z,94.77
2019-03-31T06:23:33.356Z,95.18
2019-03-31T06:24:33.299Z,94.10
2019-03-31T06:25:33.354Z,93.79
2019-03-31T06:26:33.291Z,94.00
2019-03-31T06:27:33.355Z,92.61
2019-03-31T06:28:33.267Z,93.24
2019-03-31T06:29:33.289Z,92.72
2019-03-31T06:30:33.254Z,91.69
2019-03-31T06:31:33.319Z,92.00
2019-03-31T06:32:33.229Z,90.51
2019-03-31T06:33:33.227Z,90.61
2019-03-31T06:34:46.413Z,91.75
2019-03-31T06:35:34.195Z,90.61
2019-03-31T06:36:33.326Z,89.28
2019-03-31T06:37:33.199Z,89.38
2019-03-31T06:38:33.145Z,89.28
2019-03-31T06:39:34.371Z,89.28
2019-03-31T06:40:33.160Z,88.86
2019-03-31T06:41:33.120Z,89.23
2019-03-31T06:42:33.110Z,88.82
2019-03-31T06:43:33.166Z,89.03
2019-03-31T06:44:33.138Z,88.72
2019-03-31T06:45:33.093Z,88.31
2019-03-31T06:46:33.072Z,88.51
2019-03-31T06:47:33.053Z,88.17
2019-03-31T06:48:33.085Z,87.65
2019-03-31T06:49:33.034Z,87.65
2019-03-31T06:50:33.043Z,87.03
2019-03-31T06:51:33.022Z,87.03
2019-03-31T06:52:33.013Z,87.24
2019-03-31T06:53:32.986Z,87.13
2019-03-31T06:54:33.002Z,87.03
2019-03-31T06:55:32.983Z,87.24
2019-03-31T06:56:32.952Z,86.93
2019-03-31T06:57:32.965Z,87.03
2019-03-31T06:58:33.055Z,86.61
2019-03-31T06:59:32.924Z,86.97
2019-03-31T07:00:32.937Z,86.82
2019-03-31T07:01:32.901Z,86.72
2019-03-31T07:02:32.947Z,86.82
2019-03-31T07:03:32.902Z,86.72
2019-03-31T07:04:32.865Z,87.03
2019-03-31T07:05:32.885Z,86.35
2019-03-31T07:06:32.849Z,87.03
2019-03-31T07:07:32.835Z,87.03
2019-03-31T07:08:32.873Z,86.82
2019-03-31T07:09:32.828Z,87.03
2019-03-31T07:10:32.835Z,86.82
2019-03-31T07:11:32.815Z,86.72
2019-03-31T07:12:32.784Z,86.61
2019-03-31T07:13:32.772Z,86.72
2019-03-31T07:14:32.765Z,87.03
2019-03-31T07:15:32.771Z,86.88
2019-03-31T07:16:32.751Z,86.47
2019-03-31T07:17:32.797Z,86.27
2019-03-31T07:18:32.722Z,86.16
2019-03-31T07:19:32.729Z,85.92
2019-03-31T07:20:32.720Z,85.92
2019-03-31T07:21:32.694Z,86.13
2019-03-31T07:22:32.682Z,85.61
2019-03-31T07:23:32.680Z,85.51
2019-03-31T07:24:32.669Z,85.61
2019-03-31T07:25:32.658Z,85.41
2019-03-31T07:26:32.659Z,85.30
2019-03-31T07:27:32.750Z,85.92
2019-03-31T07:28:32.620Z,85.61
2019-03-31T07:29:32.604Z,85.96
2019-03-31T07:30:32.602Z,86.06
2019-03-31T07:31:32.595Z,86.88
2019-03-31T07:32:32.607Z,86.16
2019-03-31T07:33:32.562Z,86.99
2019-03-31T07:34:32.549Z,86.58
2019-03-31T07:35:32.611Z,87.30
2019-03-31T07:36:32.535Z,86.88
2019-03-31T07:37:46.319Z,87.19
2019-03-31T07:38:39.307Z,86.88
2019-03-31T07:39:33.842Z,86.79
2019-03-31T07:40:32.770Z,87.19
2019-03-31T07:41:32.653Z,87.19
2019-03-31T07:42:32.470Z,86.79
2019-03-31T07:43:32.456Z,87.09
2019-03-31T07:44:32.463Z,86.58
2019-03-31T07:45:32.491Z,86.99
2019-03-31T07:46:32.476Z,86.79
2019-03-31T07:47:32.415Z,87.24
2019-03-31T07:48:32.404Z,87.34
2019-03-31T07:49:32.394Z,87.54
2019-03-31T07:50:32.380Z,88.06
2019-03-31T07:51:32.389Z,88.17
2019-03-31T07:52:32.400Z,88.06
2019-03-31T07:53:32.359Z,87.96
2019-03-31T07:54:32.334Z,88.17
2019-03-31T07:55:32.331Z,88.68
2019-03-31T07:56:32.335Z,88.37
2019-03-31T07:57:32.333Z,88.62
2019-03-31T07:58:32.314Z,88.89
2019-03-31T07:59:32.280Z,89.03
2019-03-31T08:00:32.284Z,88.57
2019-03-31T08:01:32.285Z,88.78
2019-03-31T08:02:32.277Z,88.78
2019-03-31T08:03:32.241Z,88.68
2019-03-31T08:04:32.245Z,88.99
2019-03-31T08:05:33.981Z,88.89
2019-03-31T08:06:33.220Z,89.29
2019-03-31T08:07:32.196Z,89.29
2019-03-31T08:08:32.189Z,89.81
2019-03-31T08:09:32.178Z,90.53
2019-03-31T08:10:32.177Z,90.73
2019-03-31T08:11:32.170Z,91.36
2019-03-31T08:12:32.165Z,91.25
2019-03-31T08:13:32.134Z,91.25
2019-03-31T08:14:32.133Z,91.25
2019-03-31T08:15:32.189Z,91.66
2019-03-31T08:16:32.099Z,91.66
2019-03-31T08:17:32.104Z,91.87
2019-03-31T08:18:32.100Z,91.72
2019-03-31T08:19:32.579Z,91.52
2019-03-31T08:20:32.054Z,91.00
2019-03-31T08:21:32.104Z,90.90
2019-03-31T08:22:32.065Z,90.90
2019-03-31T08:23:32.049Z,90.90
2019-03-31T08:24:32.052Z,90.34
2019-03-31T08:25:32.002Z,90.14
2019-03-31T08:26:31.995Z,90.18
2019-03-31T08:27:31.981Z,90.59
2019-03-31T08:28:31.996Z,90.28
2019-03-31T08:29:31.960Z,91.21
2019-03-31T08:30:31.995Z,91.11
2019-03-31T08:31:31.980Z,91.31
2019-03-31T08:32:31.955Z,90.69
2019-03-31T08:33:31.919Z,90.84
2019-03-31T08:34:31.907Z,90.90
2019-03-31T08:35:31.896Z,91.21
2019-03-31T08:36:35.172Z,91.46
2019-03-31T08:37:31.890Z,90.84
2019-03-31T08:38:32.024Z,90.53
2019-03-31T08:39:31.853Z,90.73
2019-03-31T08:40:31.848Z,90.84
2019-03-31T08:41:31.831Z,90.64
2019-03-31T08:42:31.824Z,90.73
2019-03-31T08:43:31.813Z,90.64
2019-03-31T08:44:31.834Z,90.53
2019-03-31T08:45:31.801Z,90.88
2019-03-31T08:46:31.823Z,90.67
2019-03-31T08:47:31.786Z,90.88
2019-03-31T08:48:31.756Z,91.50
2019-03-31T08:49:31.760Z,90.99
2019-03-31T08:50:34.676Z,91.30
2019-03-31T08:51:31.726Z,90.82
2019-03-31T08:52:31.735Z,91.09
2019-03-31T08:53:31.711Z,91.24
2019-03-31T08:54:31.697Z,91.44
2019-03-31T08:55:31.682Z,91.13
2019-03-31T08:56:31.673Z,91.34
2019-03-31T08:57:31.677Z,90.88
2019-03-31T08:58:31.670Z,91.34
2019-03-31T08:59:31.661Z,90.92
2019-03-31T09:00:31.632Z,91.85
2019-03-31T09:01:31.618Z,92.06
2019-03-31T09:02:31.608Z,91.54
2019-03-31T09:03:31.598Z,91.64
2019-03-31T09:04:31.631Z,91.75
2019-03-31T09:05:31.634Z,91.54
2019-03-31T09:06:31.563Z,91.96
2019-03-31T09:07:31.556Z,91.64
2019-03-31T09:08:31.548Z,91.75
2019-03-31T09:09:31.541Z,91.54
2019-03-31T09:10:31.547Z,91.34
2019-03-31T09:11:31.629Z,91.75
2019-03-31T09:12:31.553Z,91.64
2019-03-31T09:13:31.503Z,91.44
2019-03-31T09:14:31.483Z,91.44
2019-03-31T09:15:31.481Z,91.64
2019-03-31T09:16:31.478Z,91.64
2019-03-31T09:17:31.464Z,91.85
2019-03-31T09:18:31.438Z,92.06
2019-03-31T09:19:31.443Z,92.47
2019-03-31T09:20:31.428Z,92.16
2019-03-31T09:21:31.443Z,91.44
2019-03-31T09:22:31.419Z,91.75
2019-03-31T09:23:31.400Z,91.71
2019-03-31T09:24:31.372Z,91.85
2019-03-31T09:25:31.377Z,91.03
2019-03-31T09:26:31.355Z,91.30
2019-03-31T09:27:31.356Z,91.64
2019-03-31T09:28:31.350Z,91.34
2019-03-31T09:29:31.355Z,91.64
2019-03-31T09:30:31.313Z,91.54
2019-03-31T09:31:31.302Z,91.85
2019-03-31T09:32:31.490Z,91.44
2019-03-31T09:33:31.301Z,91.54
2019-03-31T09:34:31.310Z,91.75
2019-03-31T09:35:31.259Z,91.34
2019-03-31T09:36:31.245Z,91.85
2019-03-31T09:37:31.245Z,91.34
2019-03-31T09:38:31.467Z,91.54
2019-03-31T09:39:31.303Z,91.75
2019-03-31T09:40:31.211Z,91.54
2019-03-31T09:41:31.193Z,91.64
2019-03-31T09:42:31.226Z,91.64
2019-03-31T09:43:31.183Z,91.64
2019-03-31T09:44:31.158Z,91.34
2019-03-31T09:45:31.230Z,91.64
2019-03-31T09:46:31.150Z,90.92
2019-03-31T09:47:31.156Z,91.13
2019-03-31T09:48:31.126Z,91.54
2019-03-31T09:49:31.130Z,91.03
2019-03-31T09:50:31.095Z,91.54
2019-03-31T09:51:31.135Z,91.03
2019-03-31T09:52:31.076Z,91.64
2019-03-31T09:53:31.129Z,91.64
2019-03-31T09:54:31.075Z,91.85
2019-03-31T09:55:31.042Z,90.72
2019-03-31T09:56:31.041Z,91.75
2019-03-31T09:57:31.041Z,91.75
2019-03-31T09:58:31.009Z,91.34
2019-03-31T09:59:30.999Z,92.57
2019-03-31T10:00:30.999Z,92.06
2019-03-31T10:01:31.004Z,92.47
2019-03-31T10:02:30.982Z,91.85
2019-03-31T10:03:30.986Z,91.75
2019-03-31T10:04:30.948Z,91.34
2019-03-31T10:05:30.933Z,91.96
2019-03-31T10:06:30.965Z,91.34
2019-03-31T10:07:30.914Z,91.54
2019-03-31T10:08:30.936Z,91.13
2019-03-31T10:09:30.913Z,91.03
2019-03-31T10:10:30.893Z,91.24
2019-03-31T10:11:30.891Z,91.13
2019-03-31T10:12:30.865Z,91.44
2019-03-31T10:13:30.847Z,91.24
2019-03-31T10:14:30.842Z,91.24
2019-03-31T10:15:30.845Z,91.13
2019-03-31T10:16:30.829Z,90.72
2019-03-31T10:17:30.808Z,90.82
2019-03-31T10:18:30.818Z,90.88
2019-03-31T10:19:30.790Z,90.82
2019-03-31T10:20:31.610Z,90.92
2019-03-31T10:21:30.853Z,91.64
2019-03-31T10:22:30.775Z,90.92
2019-03-31T10:23:30.833Z,90.61
2019-03-31T10:24:30.751Z,90.10
2019-03-31T10:25:30.761Z,89.75
2019-03-31T10:26:32.096Z,88.96
2019-03-31T10:27:30.701Z,88.86
2019-03-31T10:28:30.727Z,89.48
2019-03-31T10:29:30.679Z,89.48
2019-03-31T10:30:30.670Z,90.10
2019-03-31T10:31:30.684Z,89.48
2019-03-31T10:32:30.651Z,89.54
2019-03-31T10:33:30.634Z,89.03
2019-03-31T10:34:30.642Z,89.07
2019-03-31T10:35:30.617Z,89.23
2019-03-31T10:36:43.741Z,89.34
2019-03-31T10:37:31.614Z,89.13
2019-03-31T10:38:30.641Z,88.82
2019-03-31T10:39:30.590Z,88.82
2019-03-31T10:40:30.583Z,89.03
2019-03-31T10:41:31.028Z,89.03
2019-03-31T10:42:30.562Z,89.23
2019-03-31T10:43:30.545Z,88.62
2019-03-31T10:44:30.586Z,88.41
2019-03-31T10:45:30.529Z,88.10
2019-03-31T10:46:30.528Z,87.48
2019-03-31T10:47:30.506Z,87.27
2019-03-31T10:48:30.496Z,88.51
2019-03-31T10:49:30.467Z,88.51
2019-03-31T10:50:30.571Z,88.68
2019-03-31T10:51:30.458Z,88.06
2019-03-31T10:52:30.446Z,87.54
2019-03-31T10:53:30.454Z,87.03
2019-03-31T10:54:30.416Z,87.69
2019-03-31T10:55:30.412Z,86.52
2019-03-31T10:56:30.423Z,86.52
2019-03-31T10:57:30.492Z,86.21
2019-03-31T10:58:30.478Z,86.79
2019-03-31T10:59:30.372Z,86.99
2019-03-31T11:00:30.356Z,86.27
2019-03-31T11:01:30.336Z,85.75
2019-03-31T11:02:30.431Z,86.16
2019-03-31T11:03:33.061Z,85.92
2019-03-31T11:04:30.335Z,85.51
2019-03-31T11:05:30.405Z,84.38
2019-03-31T11:06:30.292Z,84.99
2019-03-31T11:07:30.279Z,85.30
2019-03-31T11:08:30.259Z,84.79
2019-03-31T11:09:30.251Z,84.99
2019-03-31T11:10:30.333Z,84.64
2019-03-31T11:11:30.234Z,84.75
2019-03-31T11:12:30.232Z,83.92
2019-03-31T11:13:30.225Z,84.13
2019-03-31T11:14:30.220Z,83.31
2019-03-31T11:15:30.189Z,83.92
2019-03-31T11:16:30.273Z,83.83
2019-03-31T11:17:30.226Z,83.41
2019-03-31T11:18:30.371Z,83.17
2019-03-31T11:19:30.237Z,83.27
2019-03-31T11:20:30.172Z,82.86
2019-03-31T11:21:30.125Z,82.55
2019-03-31T11:22:30.118Z,82.55
2019-03-31T11:23:30.158Z,82.55
2019-03-31T11:24:30.197Z,82.55
2019-03-31T11:25:30.087Z,82.45
2019-03-31T11:26:30.082Z,82.14
2019-03-31T11:27:30.104Z,82.55
2019-03-31T11:28:30.052Z,82.45
2019-03-31T11:29:30.112Z,81.62
2019-03-31T11:30:30.033Z,81.46
2019-03-31T11:31:30.042Z,82.24
2019-03-31T11:32:30.007Z,82.24
2019-03-31T11:33:29.997Z,81.62
2019-03-31T11:34:30.016Z,81.73
2019-03-31T11:35:29.997Z,81.93
2019-03-31T11:36:29.970Z,81.11
2019-03-31T11:37:30.015Z,80.29
2019-03-31T11:38:29.945Z,80.77
2019-03-31T11:39:29.988Z,81.69
2019-03-31T11:40:29.939Z,81.79
2019-03-31T11:41:29.916Z,80.56
2019-03-31T11:42:29.943Z,80.87
2019-03-31T11:43:29.894Z,81.18
2019-03-31T11:44:29.882Z,80.52
2019-03-31T11:45:29.890Z,80.97
2019-03-31T11:46:29.859Z,80.97
2019-03-31T11:47:29.849Z,80.66
2019-03-31T11:48:29.899Z,80.87
2019-03-31T11:49:29.828Z,80.77
2019-03-31T11:50:29.855Z,81.07
2019-03-31T11:51:29.810Z,80.66
2019-03-31T11:52:29.798Z,80.87
2019-03-31T11:53:29.787Z,80.77
2019-03-31T11:54:29.774Z,80.77
2019-03-31T11:55:29.916Z,80.77
2019-03-31T11:56:29.757Z,80.35
2019-03-31T11:57:29.742Z,80.35
2019-03-31T11:58:32.250Z,80.19
2019-03-31T11:59:29.721Z,81.21
2019-03-31T12:00:29.774Z,82.00
2019-03-31T12:01:29.702Z,79.67
2019-03-31T12:02:29.733Z,80.60
2019-03-31T12:03:31.097Z,80.60
2019-03-31T12:04:29.676Z,80.19
2019-03-31T12:05:29.681Z,79.84
2019-03-31T12:06:29.657Z,79.77
2019-03-31T12:07:29.637Z,79.33
2019-03-31T12:08:29.654Z,79.74
2019-03-31T12:09:29.617Z,79.63
2019-03-31T12:10:29.611Z,78.92
2019-03-31T12:11:29.616Z,78.78
2019-03-31T12:12:29.592Z,79.19
2019-03-31T12:13:29.575Z,78.47
2019-03-31T12:14:29.579Z,77.40
2019-03-31T12:15:29.567Z,77.20
2019-03-31T12:16:29.544Z,77.26
2019-03-31T12:17:29.560Z,76.86
2019-03-31T12:18:29.524Z,76.96
2019-03-31T12:19:29.514Z,77.03
2019-03-31T12:20:29.545Z,75.59
2019-03-31T12:21:29.511Z,77.03
2019-03-31T12:22:29.487Z,75.66
2019-03-31T12:23:29.479Z,76.00
2019-03-31T12:24:29.469Z,74.94
2019-03-31T12:25:29.465Z,75.49
2019-03-31T12:26:29.513Z,75.31
2019-03-31T12:27:29.430Z,75.42
2019-03-31T12:28:29.422Z,74.08
2019-03-31T12:29:29.405Z,73.47
2019-03-31T12:30:29.397Z,74.46
2019-03-31T12:31:29.413Z,73.47
2019-03-31T12:32:29.399Z,74.60
2019-03-31T12:33:29.359Z,75.31
2019-03-31T12:34:29.352Z,75.21
2019-03-31T12:35:29.340Z,74.08
2019-03-31T12:36:29.330Z,74.05
2019-03-31T12:37:41.541Z,73.54
2019-03-31T12:38:30.368Z,73.40
2019-03-31T12:39:29.300Z,73.71
2019-03-31T12:40:29.284Z,72.89
2019-03-31T12:41:29.274Z,72.52
2019-03-31T12:42:29.267Z,73.03
2019-03-31T12:43:29.276Z,72.72
2019-03-31T12:44:29.293Z,73.64
2019-03-31T12:45:29.271Z,73.54
2019-03-31T12:46:29.241Z,73.13
2019-03-31T12:47:29.216Z,73.74
2019-03-31T12:48:31.604Z,74.05
2019-03-31T12:49:29.207Z,73.54
2019-03-31T12:50:29.177Z,73.85
2019-03-31T12:51:29.222Z,73.85
2019-03-31T12:52:29.162Z,73.13